Latest Weather Observations for St Lawrence

IDQ60801

Issued at 6:06 pm EST Monday 22 December 2014 (issued every 30 minutes, with the page automatically refreshed every 10 minutes)

About weather observations | Map of weather stations | Latest weather observations for QLD | Other Formats
Station Details ID: 033210 Name: ST LAWRENCE Lat: -22.35 Lon: 149.52 Height: 9.19 m
Data from the previous 72 hours. | See also: Recent months at St Lawrence
Date/Time
EST
Temp
°C
App
Temp
°C
Dew
Point
Rel
Hum
%
Delta-T
°C
Wind Press
QNH
hPa
Press
MSL
hPa
Rain
since 9 am
mm
Dir
 
Spd
km/h
Gust
km/h
Spd
kts
Gust
kts
22/06:00pm 28.1 27.4 18.2 55 6.3 NE 19 28 10 15 1012.2 1012.1 0.0
22/05:30pm 29.0 28.4 17.5 49 7.3 NE 17 26 9 14 1012.0 1011.9 0.0
22/05:00pm 29.4 28.8 18.5 52 7.0 NNE 19 28 10 15 1011.7 1011.6 0.0
22/04:30pm 29.7 28.6 17.2 47 7.9 NE 19 30 10 16 1011.6 1011.5 0.0
22/04:00pm 30.3 29.9 18.1 48 7.8 NE 17 24 9 13 1011.5 1011.4 0.0
22/03:30pm 30.3 29.8 18.7 50 7.5 NE 19 26 10 14 1011.8 1011.7 0.0
22/03:00pm 30.2 29.8 18.9 50 7.3 NNE 19 26 10 14 1012.0 1011.9 0.0
22/02:30pm 30.8 30.0 18.5 47 7.9 NNE 20 30 11 16 1012.0 1011.9 0.0
22/02:00pm 31.2 31.3 19.2 48 7.8 NE 17 24 9 13 1012.3 1012.2 0.0
22/01:30pm 30.4 30.2 18.5 49 7.7 NE 17 26 9 14 1012.7 1012.6 0.0
22/01:00pm 30.1 30.1 18.2 49 7.6 NNE 15 19 8 10 1013.1 1013.0 0.0
22/12:30pm 29.9 29.6 18.3 49 7.4 NE 17 26 9 14 1013.7 1013.6 0.0
22/12:00pm 30.5 31.2 17.9 47 8.1 E 11 19 6 10 1014.1 1014.0 0.0
22/11:30am 29.3 29.3 18.1 51 7.2 NE 15 24 8 13 1014.4 1014.3 0.0
22/11:00am 29.3 29.3 17.2 48 7.6 ESE 13 22 7 12 1014.6 1014.5 0.0
22/10:30am 29.9 29.9 18.0 48 7.6 E 15 20 8 11 1015.0 1014.9 0.0
22/10:00am 28.3 28.7 18.1 54 6.5 ESE 13 22 7 12 1015.2 1015.1 0.0
22/09:30am 28.1 28.9 19.9 61 5.4 E 15 24 8 13 1015.3 1015.2 0.0
22/09:00am 28.2 29.0 19.1 57 5.9 ENE 13 28 7 15 1015.1 1015.0 0.0
22/08:30am 26.6 28.1 19.7 66 4.5 ESE 11 19 6 10 1015.4 1015.3 0.0
22/08:00am 27.2 29.2 20.0 64 4.7 ESE 9 19 5 10 1015.3 1015.2 0.0
22/07:30am 26.1 27.9 19.5 67 4.3 ESE 9 13 5 7 1014.9 1014.8 0.0
22/07:00am 25.4 27.9 19.8 71 3.6 SSE 6 9 3 5 1014.5 1014.4 0.0
22/06:30am 23.9 26.4 20.2 80 2.4 S 7 11 4 6 1014.0 1013.9 0.0
22/06:00am 22.8 25.2 20.1 85 1.7 SSE 7 11 4 6 1013.7 1013.6 0.0
22/05:30am 22.0 24.1 20.1 89 1.2 S 9 11 5 6 1013.5 1013.4 0.0
22/05:00am 21.8 23.7 19.7 88 1.3 SSE 9 11 5 6 1013.2 1013.1 0.0
22/04:30am 22.1 24.0 19.8 87 1.5 S 9 11 5 6 1013.2 1013.1 0.0
22/04:00am 22.3 24.5 19.7 85 1.7 S 7 9 4 5 1013.2 1013.1 0.0
22/03:30am 22.6 24.5 19.8 84 1.8 S 9 11 5 6 1013.1 1013.0 0.0
22/03:00am 22.8 24.8 20.0 84 1.8 SSE 9 11 5 6 1013.2 1013.1 0.0
22/02:30am 22.8 24.8 20.0 84 1.8 SSE 9 11 5 6 1013.3 1013.2 0.0
22/02:00am 22.7 24.7 20.0 85 1.7 S 9 13 5 7 1013.3 1013.2 0.0
22/01:30am 22.9 25.0 20.2 85 1.7 S 9 13 5 7 1013.6 1013.5 0.0
22/01:00am 23.1 25.5 20.1 83 1.9 S 7 9 4 5 1014.0 1013.9 0.0
22/12:30am 23.8 26.0 20.3 81 2.3 SSE 9 11 5 6 1014.2 1014.1 0.0
22/12:00am 23.9 26.5 20.0 79 2.5 SE 6 7 3 4 1014.5 1014.4 0.0
 
Date/Time
EST
Temp
°C
App
Temp
°C
Dew
Point
Rel
Hum
%
Delta-T
°C
Wind Press
QNH
hPa
Press
MSL
hPa
Rain
since 9 am
mm
Dir
 
Spd
km/h
Gust
km/h
Spd
kts
Gust
kts
21/11:30pm 24.5 26.6 20.2 77 2.8 ESE 9 11 5 6 1014.8 1014.7 0.0
21/11:00pm 24.5 27.1 20.0 76 2.9 E 6 9 3 5 1015.0 1014.9 0.0
21/10:30pm 24.9 27.4 20.2 75 3.1 E 7 11 4 6 1014.9 1014.8 0.0
21/10:00pm 25.3 27.9 20.5 75 3.1 E 7 13 4 7 1014.9 1014.8 0.0
21/09:30pm 25.7 28.0 20.7 74 3.3 ENE 9 13 5 7 1014.6 1014.5 0.0
21/09:00pm 25.8 27.7 20.6 73 3.4 ENE 11 17 6 9 1014.4 1014.3 0.0
21/08:30pm 26.0 28.4 20.8 73 3.4 ENE 9 15 5 8 1014.4 1014.3 0.0
21/08:00pm 26.2 28.1 20.5 71 3.7 NE 11 17 6 9 1014.1 1014.0 0.0
21/07:30pm 26.3 28.3 20.8 71 3.6 NE 11 15 6 8 1013.9 1013.8 0.0
21/07:00pm 26.8 28.2 21.1 71 3.8 NE 15 26 8 14 1013.5 1013.4 0.0
21/06:30pm 27.3 28.8 21.3 69 4.0 NNE 15 19 8 10 1013.3 1013.2 0.0
21/06:00pm 27.7 29.1 21.0 67 4.4 NE 15 20 8 11 1013.1 1013.0 0.0
21/05:30pm 28.0 29.0 21.8 69 4.2 NNE 19 26 10 14 1012.7 1012.6 0.0
21/05:00pm 28.3 29.6 21.6 67 4.5 NE 17 26 9 14 1012.6 1012.5 0.0
21/04:30pm 28.5 29.2 21.5 66 4.7 NNE 20 28 11 15 1012.4 1012.3 0.0
21/04:00pm 28.9 29.4 21.1 62 5.2 NNE 20 30 11 16 1012.4 1012.3 0.0
21/03:30pm 29.6 29.8 20.5 58 6.0 NNE 20 28 11 15 1012.5 1012.4 0.0
21/03:00pm 30.2 30.2 21.0 58 6.1 NE 22 30 12 16 1012.6 1012.5 0.0
21/02:30pm 29.7 29.5 20.5 57 6.1 NNE 22 30 12 16 1013.0 1012.9 0.0
21/02:00pm 29.8 30.5 21.2 60 5.7 NE 19 24 10 13 1013.2 1013.1 0.0
21/01:30pm 31.1 31.8 20.4 53 7.1 NE 17 26 9 14 1013.5 1013.4 0.0
21/01:00pm 30.9 31.0 19.9 52 7.2 NE 19 28 10 15 1013.8 1013.7 0.0
21/12:30pm 30.8 31.3 20.1 53 7.1 NNE 17 28 9 15 1014.2 1014.1 0.0
21/12:00pm 30.8 30.8 19.8 52 7.2 NNE 19 26 10 14 1014.5 1014.4 0.0
21/11:30am 29.7 30.4 19.7 55 6.5 NE 15 22 8 12 1014.8 1014.7 0.0
21/11:00am 29.9 30.1 20.2 56 6.4 NE 19 28 10 15 1014.9 1014.8 0.0
21/10:30am 30.3 30.7 19.9 53 6.8 NE 17 28 9 15 1014.8 1014.7 0.0
21/10:00am 30.2 31.3 20.4 55 6.5 ENE 15 26 8 14 1015.2 1015.1 0.0
21/09:30am 28.7 29.5 19.9 59 5.8 ENE 15 24 8 13 1015.1 1015.0 0.0
21/09:00am 29.0 30.0 20.2 59 5.8 NE 15 22 8 12 1015.0 1014.9 0.0
21/08:30am 28.2 29.5 20.2 62 5.3 ENE 13 19 7 10 1014.8 1014.7 0.0
21/08:00am 27.7 30.1 21.5 69 4.1 ESE 11 17 6 9 1014.7 1014.6 0.0
21/07:30am 26.6 29.3 21.4 73 3.5 ESE 9 17 5 9 1014.4 1014.3 0.0
21/07:00am 25.8 28.4 21.2 76 3.0 SSE 9 13 5 7 1014.1 1014.0 0.0
21/06:30am 24.4 26.9 21.1 82 2.2 SSE 9 11 5 6 1013.8 1013.7 0.0
21/06:00am 23.0 25.3 20.7 87 1.5 S 9 13 5 7 1013.6 1013.5 0.0
21/05:30am 22.5 24.4 20.6 89 1.2 SSE 11 15 6 8 1013.3 1013.2 0.0
21/05:00am 22.5 24.7 20.4 88 1.4 SSE 9 13 5 7 1013.0 1012.9 0.0
21/04:30am 22.7 24.9 20.4 87 1.5 SSE 9 13 5 7 1012.6 1012.5 0.0
21/04:00am 23.0 25.2 20.5 86 1.6 SSE 9 13 5 7 1012.3 1012.2 0.0
21/03:30am 23.2 25.6 20.9 87 1.5 SSE 9 13 5 7 1012.4 1012.3 0.0
21/03:00am 23.8 26.8 21.3 86 1.6 SSE 7 9 4 5 1012.4 1012.3 0.0
21/02:30am 23.8 26.9 21.1 85 1.8 SE 6 7 3 4 1012.4 1012.3 0.0
21/02:00am 24.2 27.3 21.1 83 2.0 SE 6 7 3 4 1012.4 1012.3 0.0
21/01:30am 24.7 27.3 21.2 81 2.3 ESE 9 13 5 7 1012.5 1012.4 0.0
21/01:00am 24.8 27.8 21.3 81 2.3 ESE 7 11 4 6 1012.8 1012.7 0.0
21/12:30am 24.5 27.4 21.0 81 2.3 ESE 7 9 4 5 1013.1 1013.0 0.0
21/12:00am 25.1 28.0 21.0 78 2.7 ESE 7 9 4 5 1013.5 1013.4 0.0
 
Date/Time
EST
Temp
°C
App
Temp
°C
Dew
Point
Rel
Hum
%
Delta-T
°C
Wind Press
QNH
hPa
Press
MSL
hPa
Rain
since 9 am
mm
Dir
 
Spd
km/h
Gust
km/h
Spd
kts
Gust
kts
20/11:30pm 25.5 28.1 21.2 77 2.8 ENE 9 13 5 7 1013.7 1013.6 0.0
20/11:00pm 25.4 28.3 21.1 77 2.8 E 7 11 4 6 1013.9 1013.8 0.0
20/10:30pm 25.6 28.4 20.8 75 3.2 ENE 7 13 4 7 1014.0 1013.9 0.0
20/10:00pm 25.7 28.4 20.7 74 3.3 ENE 7 9 4 5 1014.2 1014.1 0.0
20/09:30pm 26.1 28.6 21.1 74 3.3 ENE 9 13 5 7 1014.0 1013.9 0.0
20/09:00pm 26.1 29.4 21.5 76 3.1 ENE 6 9 3 5 1013.5 1013.4 0.0
20/08:30pm 26.3 29.3 21.9 77 2.9 NE 9 11 5 6 1013.2 1013.1 0.0
20/08:00pm 26.6 29.4 21.6 74 3.3 NNE 9 13 5 7 1012.7 1012.6 0.0
20/07:30pm 26.9 28.9 21.6 72 3.5 NNE 13 15 7 8 1012.2 1012.1 0.0
20/07:00pm 27.5 29.3 21.8 71 3.8 NNE 15 20 8 11 1011.9 1011.8 0.0
20/06:30pm 27.9 29.2 21.7 69 4.2 NNE 17 24 9 13 1011.6 1011.5 0.0
20/06:00pm 28.5 29.3 21.3 65 4.8 NNE 19 26 10 14 1011.2 1011.1 0.0
20/05:30pm 28.6 29.1 21.1 64 5.0 NNE 20 26 11 14 1010.9 1010.8 0.0
20/05:00pm 29.3 29.3 20.2 58 6.0 NNE 20 28 11 15 1010.4 1010.3 0.0
20/04:30pm 30.0 30.1 20.3 56 6.4 NNE 20 30 11 16 1010.3 1010.2 0.0
20/04:00pm 30.3 30.8 21.1 58 6.2 NNE 20 30 11 16 1010.1 1010.0 0.0
20/03:30pm 30.6 30.8 21.4 58 6.2 NNE 22 30 12 16 1010.2 1010.1 0.0
20/03:00pm 31.6 32.1 21.2 54 7.0 NE 20 28 11 15 1010.4 1010.3 0.0
20/02:30pm 32.0 31.9 19.6 47 8.2 NE 19 24 10 13 1010.4 1010.3 0.0
20/02:00pm 32.7 30.9 16.1 37 10.4 NE 20 26 11 14 1010.8 1010.7 0.0
20/01:30pm 32.9 33.1 19.4 45 8.9 NE 17 26 9 14 1011.2 1011.1 0.0
20/01:00pm 33.5 31.1 12.5 28 12.5 E 17 26 9 14 1011.3 1011.2 0.0
20/12:30pm 34.0 31.9 13.5 29 12.4 ESE 17 24 9 13 1011.6 1011.5 0.0
20/12:00pm 32.5 32.1 17.2 40 9.8 ENE 15 28 8 15 1012.0 1011.9 0.0
20/11:30am 32.2 31.8 18.8 45 8.7 NNE 19 24 10 13 1012.2 1012.1 0.0
20/11:00am 32.0 31.8 17.5 42 9.3 NE 15 24 8 13 1012.7 1012.6 0.0
20/10:30am 31.4 33.3 19.7 49 7.7 N 9 19 5 10 1012.8 1012.7 0.0
20/10:00am 31.0 32.7 18.0 45 8.3 NNE 6 13 3 7 1013.0 1012.9 0.0
20/09:30am 30.6 32.4 19.6 51 7.2 ENE 9 15 5 8 1012.8 1012.7 0.0
20/09:00am 29.8 32.2 20.9 59 5.9 NE 9 13 5 7 1012.9 1012.8 0.0
20/08:30am 28.0 31.0 20.8 65 4.8 NNE 6 9 3 5 1012.8 1012.7 0.0
20/08:00am 27.2 31.5 22.6 76 3.1 NW 4 7 2 4 1012.9 1012.8 0.0
20/07:30am 25.7 30.4 22.6 83 2.1 SSE 2 7 1 4 1012.8 1012.7 0.0
20/07:00am 25.3 30.6 23.0 87 1.6 CALM 0 0 0 0 1012.6 1012.5 0.0
20/06:30am 23.9 29.0 22.7 93 0.8 CALM 0 0 0 0 1012.3 1012.2 0.0
20/06:00am 22.7 27.4 21.9 95 0.5 CALM 0 0 0 0 1012.0 1011.9 0.0
20/05:30am 22.4 26.8 21.4 94 0.7 CALM 0 0 0 0 1011.6 1011.5 0.0
20/05:00am 21.5 25.2 20.0 91 1.0 CALM 0 0 0 0 1011.2 1011.1 0.0
20/04:30am 22.7 27.3 21.7 94 0.7 CALM 0 0 0 0 1010.9 1010.8 0.0
20/04:00am 22.8 27.4 21.8 94 0.7 CALM 0 6 0 3 1010.8 1010.7 0.0
20/03:30am 22.8 27.2 21.4 92 0.9 CALM 0 0 0 0 1010.8 1010.7 0.0
20/03:00am 22.9 27.4 21.5 92 0.9 CALM 0 0 0 0 1010.9 1010.8 0.0
20/02:30am 23.3 28.0 21.9 92 0.9 CALM 0 0 0 0 1011.0 1010.9 0.0
20/02:00am 23.3 27.8 21.6 90 1.1 CALM 0 0 0 0 1011.1 1011.0 0.0
20/01:30am 23.7 28.4 22.0 90 1.1 CALM 0 0 0 0 1011.4 1011.3 0.0
20/01:00am 24.0 28.9 22.3 90 1.1 CALM 0 0 0 0 1011.6 1011.5 0.0
20/12:30am 24.3 29.1 22.2 88 1.4 CALM 0 0 0 0 1011.9 1011.8 0.0
20/12:00am 24.6 29.6 22.5 88 1.4 CALM 0 0 0 0 1012.1 1012.0 0.0
 
Date/Time
EST
Temp
°C
App
Temp
°C
Dew
Point
Rel
Hum
%
Delta-T
°C
Wind Press
QNH
hPa
Press
MSL
hPa
Rain
since 9 am
mm
Dir
 
Spd
km/h
Gust
km/h
Spd
kts
Gust
kts
19/11:30pm 24.8 29.8 22.5 87 1.5 CALM 0 0 0 0 1012.6 1012.5 0.0
19/11:00pm 25.4 29.4 22.7 85 1.8 SSW 6 7 3 4 1012.8 1012.7 0.0
19/10:30pm 26.0 30.1 22.9 83 2.1 SE 6 7 3 4 1013.0 1012.9 0.0
19/10:00pm 25.9 29.7 22.8 83 2.1 E 7 9 4 5 1013.1 1013.0 0.0
19/09:30pm 26.1 30.2 23.2 84 2.0 E 7 13 4 7 1012.9 1012.8 0.0
19/09:00pm 26.3 29.5 23.0 82 2.2 ENE 11 17 6 9 1012.6 1012.5 0.0
19/08:30pm 27.0 30.2 23.0 79 2.7 E 11 17 6 9 1012.2 1012.1 0.0
19/08:00pm 27.6 31.1 22.1 72 3.7 SE 7 11 4 6 1011.8 1011.7 0.0
19/07:30pm 28.1 31.8 22.3 70 3.9 SE 6 9 3 5 1011.4 1011.3 0.0
19/07:00pm 28.6 31.9 21.9 67 4.5 SSE 7 11 4 6 1011.0 1010.9 0.0
19/06:30pm 29.2 32.6 21.7 64 5.0 S 6 7 3 4 1010.6 1010.5 0.0

Other Formats:

Comma delimited format used in spreadsheet applications
http://www.bom.gov.au/fwo/IDQ60801/IDQ60801.95369.axf

JavaScript Object Notation format (JSON) in row-major order
http://www.bom.gov.au/fwo/IDQ60801/IDQ60801.95369.json